createdAt,value
2023-01-20T00:22:10.923Z,563.00
2023-01-20T00:23:10.913Z,565.00
2023-01-20T00:24:10.884Z,568.00
2023-01-20T00:25:10.973Z,566.00
2023-01-20T00:26:10.860Z,566.00
2023-01-20T00:27:10.850Z,562.00
2023-01-20T00:28:10.862Z,566.00
2023-01-20T00:29:10.827Z,564.00
2023-01-20T00:30:10.817Z,567.00
2023-01-20T00:31:10.837Z,565.00
2023-01-20T00:32:10.801Z,566.00
2023-01-20T00:33:10.791Z,566.00
2023-01-20T00:34:10.785Z,566.00
2023-01-20T00:35:10.915Z,566.00
2023-01-20T00:36:10.767Z,569.00
2023-01-20T00:37:10.771Z,569.00
2023-01-20T00:38:10.747Z,569.00
2023-01-20T00:39:10.738Z,566.00
2023-01-20T00:40:10.742Z,568.00
2023-01-20T00:41:10.724Z,570.00
2023-01-20T00:42:10.721Z,566.00
2023-01-20T00:43:10.694Z,566.00
2023-01-20T00:44:10.670Z,571.00
2023-01-20T00:45:10.669Z,567.00
2023-01-20T00:46:10.690Z,568.00
2023-01-20T00:47:10.644Z,571.00
2023-01-20T00:48:10.634Z,569.00
2023-01-20T00:49:10.619Z,574.00
2023-01-20T00:50:10.609Z,569.00
2023-01-20T00:51:10.618Z,573.00
2023-01-20T00:52:10.582Z,573.00
2023-01-20T00:53:10.580Z,567.00
2023-01-20T00:54:10.561Z,571.00
2023-01-20T00:55:10.639Z,573.00
2023-01-20T00:56:10.542Z,572.00
2023-01-20T00:57:10.533Z,571.00
2023-01-20T00:58:10.530Z,571.00
2023-01-20T00:59:10.528Z,574.00
2023-01-20T01:00:10.521Z,576.00
2023-01-20T01:01:10.528Z,574.00
2023-01-20T01:02:10.635Z,575.00
2023-01-20T01:03:10.488Z,574.00
2023-01-20T01:04:10.467Z,576.00
2023-01-20T01:05:10.571Z,576.00
2023-01-20T01:06:10.448Z,577.00
2023-01-20T01:07:10.441Z,575.00
2023-01-20T01:08:10.429Z,578.00
2023-01-20T01:09:10.418Z,578.00
2023-01-20T01:10:10.431Z,576.00
2023-01-20T01:11:10.397Z,577.00
2023-01-20T01:12:10.389Z,578.00
2023-01-20T01:13:10.383Z,579.00
2023-01-20T01:14:10.366Z,580.00
2023-01-20T01:15:10.389Z,580.00
2023-01-20T01:16:10.371Z,579.00
2023-01-20T01:17:10.351Z,574.00
2023-01-20T01:18:10.317Z,575.00
2023-01-20T01:19:10.318Z,581.00
2023-01-20T01:20:10.307Z,580.00
2023-01-20T01:21:10.292Z,577.00
2023-01-20T01:22:10.284Z,577.00
2023-01-20T01:23:10.275Z,583.00
2023-01-20T01:24:10.260Z,579.00
2023-01-20T01:25:10.269Z,581.00
2023-01-20T01:26:10.243Z,580.00
2023-01-20T01:27:10.223Z,579.00
2023-01-20T01:28:10.213Z,580.00
2023-01-20T01:29:10.208Z,581.00
2023-01-20T01:30:10.191Z,582.00
2023-01-20T01:31:10.242Z,580.00
2023-01-20T01:32:10.190Z,579.00
2023-01-20T01:33:10.163Z,585.00
2023-01-20T01:34:10.170Z,580.00
2023-01-20T01:35:10.187Z,582.00
2023-01-20T01:36:10.161Z,581.00
2023-01-20T01:37:10.158Z,585.00
2023-01-20T01:38:10.139Z,582.00
2023-01-20T01:39:10.132Z,583.00
2023-01-20T01:40:10.140Z,583.00
2023-01-20T01:41:10.104Z,582.00
2023-01-20T01:42:10.098Z,587.00
2023-01-20T01:43:10.087Z,583.00
2023-01-20T01:44:10.093Z,583.00
2023-01-20T01:45:10.144Z,584.00
2023-01-20T01:46:10.088Z,585.00
2023-01-20T01:47:10.088Z,586.00
2023-01-20T01:48:10.054Z,585.00
2023-01-20T01:49:10.052Z,584.00
2023-01-20T01:50:10.051Z,584.00
2023-01-20T01:51:10.061Z,585.00
2023-01-20T01:52:10.009Z,589.00
2023-01-20T01:53:10.019Z,585.00
2023-01-20T01:54:10.013Z,587.00
2023-01-20T01:55:09.988Z,582.00
2023-01-20T01:56:09.968Z,586.00
2023-01-20T01:57:09.971Z,587.00
2023-01-20T01:58:09.961Z,589.00
2023-01-20T01:59:09.984Z,586.00
2023-01-20T02:00:09.956Z,585.00
2023-01-20T02:01:09.979Z,588.00
2023-01-20T02:02:09.974Z,585.00
2023-01-20T02:03:09.921Z,587.00
2023-01-20T02:04:09.912Z,586.00
2023-01-20T02:05:09.975Z,585.00
2023-01-20T02:06:09.894Z,585.00
2023-01-20T02:07:09.895Z,586.00
2023-01-20T02:08:09.908Z,580.00
2023-01-20T02:09:09.874Z,583.00
2023-01-20T02:10:09.881Z,582.00
2023-01-20T02:11:09.873Z,580.00
2023-01-20T02:12:09.863Z,582.00
2023-01-20T02:13:09.848Z,582.00
2023-01-20T02:14:09.838Z,583.00
2023-01-20T02:15:09.828Z,581.00
2023-01-20T02:16:09.862Z,580.00
2023-01-20T02:17:09.805Z,577.00
2023-01-20T02:18:09.813Z,576.00
2023-01-20T02:19:09.825Z,578.00
2023-01-20T02:20:09.808Z,575.00
2023-01-20T02:21:09.790Z,573.00
2023-01-20T02:22:11.753Z,572.00
2023-01-20T02:23:09.795Z,574.00
2023-01-20T02:24:09.776Z,572.00
2023-01-20T02:25:09.752Z,569.00
2023-01-20T02:26:09.767Z,570.00
2023-01-20T02:27:09.741Z,571.00
2023-01-20T02:28:09.771Z,572.00
2023-01-20T02:29:09.726Z,569.00
2023-01-20T02:30:09.738Z,570.00
2023-01-20T02:31:09.704Z,568.00
2023-01-20T02:32:09.697Z,571.00
2023-01-20T02:33:09.688Z,567.00
2023-01-20T02:34:09.681Z,567.00
2023-01-20T02:35:09.694Z,567.00
2023-01-20T02:36:09.672Z,567.00
2023-01-20T02:37:09.663Z,564.00
2023-01-20T02:38:09.647Z,564.00
2023-01-20T02:39:09.638Z,563.00
2023-01-20T02:40:09.646Z,564.00
2023-01-20T02:41:09.618Z,567.00
2023-01-20T02:42:09.615Z,564.00
2023-01-20T02:43:09.605Z,563.00
2023-01-20T02:44:09.585Z,565.00
2023-01-20T02:45:09.604Z,567.00
2023-01-20T02:46:09.565Z,565.00
2023-01-20T02:47:09.569Z,565.00
2023-01-20T02:48:09.553Z,564.00
2023-01-20T02:49:09.528Z,563.00
2023-01-20T02:50:09.549Z,563.00
2023-01-20T02:51:09.522Z,560.00
2023-01-20T02:52:09.530Z,560.00
2023-01-20T02:53:09.552Z,557.00
2023-01-20T02:54:09.513Z,559.00
2023-01-20T02:55:09.508Z,559.00
2023-01-20T02:56:09.470Z,559.00
2023-01-20T02:57:09.477Z,559.00
2023-01-20T02:58:09.470Z,555.00
2023-01-20T02:59:09.471Z,557.00
2023-01-20T03:00:09.477Z,553.00
2023-01-20T03:01:09.533Z,556.00
2023-01-20T03:02:09.495Z,556.00
2023-01-20T03:03:09.437Z,557.00
2023-01-20T03:04:09.543Z,556.00
2023-01-20T03:05:09.444Z,555.00
2023-01-20T03:06:09.423Z,554.00
2023-01-20T03:07:09.409Z,556.00
2023-01-20T03:08:09.471Z,555.00
2023-01-20T03:09:09.405Z,554.00
2023-01-20T03:10:09.407Z,552.00
2023-01-20T03:11:09.422Z,550.00
2023-01-20T03:12:09.378Z,548.00
2023-01-20T03:13:09.355Z,552.00
2023-01-20T03:14:09.372Z,547.00
2023-01-20T03:15:09.354Z,547.00
2023-01-20T03:16:09.367Z,551.00
2023-01-20T03:17:09.389Z,548.00
2023-01-20T03:18:09.321Z,549.00
2023-01-20T03:19:09.325Z,547.00
2023-01-20T03:20:09.317Z,548.00
2023-01-20T03:21:09.317Z,548.00
2023-01-20T03:22:09.293Z,548.00
2023-01-20T03:23:09.296Z,549.00
2023-01-20T03:24:09.285Z,546.00
2023-01-20T03:25:09.281Z,547.00
2023-01-20T03:26:09.298Z,546.00
2023-01-20T03:27:09.272Z,543.00
2023-01-20T03:28:09.292Z,544.00
2023-01-20T03:29:09.263Z,546.00
2023-01-20T03:30:09.247Z,540.00
2023-01-20T03:31:09.376Z,542.00
2023-01-20T03:32:09.246Z,539.00
2023-01-20T03:33:09.228Z,544.00
2023-01-20T03:34:09.252Z,544.00
2023-01-20T03:35:09.233Z,542.00
2023-01-20T03:36:09.234Z,541.00
2023-01-20T03:37:09.217Z,544.00
2023-01-20T03:38:09.211Z,539.00
2023-01-20T03:39:09.199Z,542.00
2023-01-20T03:40:09.184Z,544.00
2023-01-20T03:41:09.223Z,544.00
2023-01-20T03:42:09.182Z,543.00
2023-01-20T03:43:09.172Z,545.00
2023-01-20T03:44:09.184Z,543.00
2023-01-20T03:45:09.160Z,543.00
2023-01-20T03:46:09.218Z,540.00
2023-01-20T03:47:09.151Z,541.00
2023-01-20T03:48:09.157Z,541.00
2023-01-20T03:49:09.158Z,542.00
2023-01-20T03:50:09.159Z,544.00
2023-01-20T03:51:09.176Z,541.00
2023-01-20T03:52:09.157Z,544.00
2023-01-20T03:53:09.132Z,546.00
2023-01-20T03:54:09.131Z,546.00
2023-01-20T03:55:09.127Z,546.00
2023-01-20T03:56:09.140Z,547.00
2023-01-20T03:57:09.115Z,542.00
2023-01-20T03:58:09.133Z,543.00
2023-01-20T03:59:09.116Z,542.00
2023-01-20T04:00:09.103Z,543.00
2023-01-20T04:01:18.839Z,542.00
2023-01-20T04:02:10.186Z,543.00
2023-01-20T04:03:09.214Z,543.00
2023-01-20T04:04:09.109Z,543.00
2023-01-20T04:05:09.088Z,545.00
2023-01-20T04:06:09.150Z,545.00
2023-01-20T04:07:09.081Z,542.00
2023-01-20T04:08:09.076Z,540.00
2023-01-20T04:09:09.088Z,542.00
2023-01-20T04:10:09.065Z,539.00
2023-01-20T04:11:09.109Z,537.00
2023-01-20T04:12:09.065Z,540.00
2023-01-20T04:13:09.059Z,541.00
2023-01-20T04:14:09.065Z,541.00
2023-01-20T04:15:09.063Z,536.00
2023-01-20T04:16:09.094Z,539.00
2023-01-20T04:17:09.056Z,540.00
2023-01-20T04:18:09.038Z,538.00
2023-01-20T04:19:09.029Z,538.00
2023-01-20T04:20:09.029Z,535.00
2023-01-20T04:21:09.027Z,533.00
2023-01-20T04:22:09.051Z,533.00
2023-01-20T04:23:09.017Z,533.00
2023-01-20T04:24:09.009Z,536.00
2023-01-20T04:25:09.002Z,531.00
2023-01-20T04:26:09.021Z,531.00
2023-01-20T04:27:08.993Z,532.00
2023-01-20T04:28:08.977Z,531.00
2023-01-20T04:29:12.030Z,530.00
2023-01-20T04:30:08.955Z,530.00
2023-01-20T04:32:09.025Z,531.00
2023-01-20T04:33:08.985Z,532.00
2023-01-20T04:34:08.966Z,531.00
2023-01-20T04:35:08.998Z,527.00
2023-01-20T04:36:08.948Z,529.00
2023-01-20T04:37:08.966Z,526.00
2023-01-20T04:38:08.957Z,531.00
2023-01-20T04:39:08.960Z,526.00
2023-01-20T04:40:08.999Z,527.00
2023-01-20T04:41:08.983Z,526.00
2023-01-20T04:42:08.968Z,535.00
2023-01-20T04:43:08.950Z,525.00
2023-01-20T04:44:08.933Z,523.00
2023-01-20T04:45:08.935Z,524.00
2023-01-20T04:46:08.949Z,525.00
2023-01-20T04:47:08.937Z,527.00
2023-01-20T04:48:08.925Z,522.00
2023-01-20T04:49:08.903Z,528.00
2023-01-20T04:50:08.891Z,528.00
2023-01-20T04:51:08.900Z,529.00
2023-01-20T06:18:09.123Z,538.00
2023-01-20T06:54:08.913Z,539.00
2023-01-20T06:55:08.918Z,557.00
2023-01-20T06:56:08.968Z,605.00
2023-01-20T06:57:09.029Z,711.00
2023-01-20T06:58:09.062Z,777.00
2023-01-20T06:59:09.134Z,794.00
2023-01-20T07:00:09.154Z,776.00
2023-01-20T07:16:11.440Z,829.00
2023-01-20T07:19:09.517Z,642.00
2023-01-20T07:20:09.610Z,643.00
2023-01-20T07:21:09.576Z,700.00
2023-01-20T07:22:09.568Z,701.00
2023-01-20T07:23:09.568Z,701.00
2023-01-20T07:24:09.602Z,702.00
2023-01-20T07:25:09.640Z,707.00
2023-01-20T07:26:09.633Z,823.00
2023-01-20T07:27:09.666Z,749.00
2023-01-20T07:28:09.673Z,750.00
2023-01-20T07:29:10.339Z,733.00
2023-01-20T07:30:09.863Z,734.00
2023-01-20T07:31:09.753Z,771.00
2023-01-20T07:32:09.727Z,764.00
2023-01-20T07:33:09.758Z,770.00
2023-01-20T07:34:09.821Z,802.00
2023-01-20T07:35:09.785Z,779.00
2023-01-20T07:36:09.802Z,855.00
2023-01-20T07:37:09.833Z,906.00
2023-01-20T07:38:09.849Z,891.00
2023-01-20T07:39:09.855Z,890.00
2023-01-20T07:40:10.406Z,912.00
2023-01-20T07:41:09.904Z,948.00
2023-01-20T07:42:09.905Z,964.00
2023-01-20T07:43:09.941Z,966.00
2023-01-20T07:44:09.923Z,972.00
2023-01-20T07:45:10.264Z,1012.00
2023-01-20T07:46:10.015Z,1021.00
2023-01-20T07:47:10.175Z,1092.00
2023-01-20T07:48:09.975Z,1088.00
2023-01-20T07:49:12.135Z,1104.00
2023-01-20T07:50:10.008Z,1114.00
2023-01-20T07:51:10.008Z,1133.00
2023-01-20T07:52:10.004Z,1166.00
2023-01-20T07:53:10.007Z,1174.00
2023-01-20T07:54:10.024Z,1175.00
2023-01-20T07:55:10.016Z,1182.00
2023-01-20T07:56:10.070Z,1191.00
2023-01-20T07:57:10.044Z,1214.00
2023-01-20T07:58:10.037Z,1254.00
2023-01-20T07:59:10.045Z,1262.00
2023-01-20T08:00:10.062Z,1260.00
2023-01-20T08:01:10.160Z,1286.00
2023-01-20T08:02:10.171Z,1313.00
2023-01-20T08:03:10.040Z,1284.00
2023-01-20T08:04:10.078Z,1291.00
2023-01-20T08:05:10.402Z,1298.00
2023-01-20T08:06:10.096Z,1318.00
2023-01-20T08:07:10.080Z,1303.00
2023-01-20T08:08:10.058Z,1305.00
2023-01-20T08:09:10.066Z,1306.00
2023-01-20T08:10:10.078Z,1304.00
2023-01-20T08:11:10.355Z,1311.00
2023-01-20T08:12:10.070Z,1322.00
2023-01-20T08:13:10.102Z,1315.00
2023-01-20T08:14:10.112Z,1299.00
2023-01-20T08:15:10.092Z,1295.00
2023-01-20T08:16:11.142Z,1319.00
2023-01-20T08:17:10.098Z,1320.00
2023-01-20T08:18:10.110Z,1321.00
2023-01-20T08:19:10.134Z,1293.00
2023-01-20T08:20:10.922Z,1312.00
2023-01-20T08:21:10.117Z,1338.00
2023-01-20T08:22:12.850Z,1341.00
2023-01-20T08:23:10.119Z,1335.00
2023-01-20T08:24:10.153Z,1329.00
2023-01-20T08:25:10.138Z,1328.00
2023-01-20T08:26:10.143Z,1327.00
2023-01-20T08:27:10.151Z,1307.00
2023-01-20T08:28:10.164Z,1318.00
2023-01-20T08:29:10.211Z,1331.00
2023-01-20T08:30:10.183Z,1332.00
2023-01-20T08:31:10.303Z,1331.00
2023-01-20T08:32:10.155Z,1316.00
2023-01-20T08:33:10.167Z,1306.00
2023-01-20T08:34:10.162Z,1276.00
2023-01-20T08:35:10.167Z,1302.00
2023-01-20T08:36:10.181Z,1276.00
2023-01-20T08:37:10.180Z,1304.00
2023-01-20T08:38:10.231Z,1273.00
2023-01-20T08:39:10.161Z,1265.00
2023-01-20T08:40:10.201Z,1227.00
2023-01-20T08:41:10.386Z,1231.00
2023-01-20T08:42:10.176Z,1273.00
2023-01-20T08:43:10.231Z,1288.00
2023-01-20T08:44:10.879Z,1305.00
2023-01-20T08:45:10.240Z,1291.00
2023-01-20T08:46:11.270Z,1300.00
2023-01-20T08:47:10.171Z,1299.00
2023-01-20T08:48:10.207Z,1342.00
2023-01-20T08:49:10.196Z,1316.00
2023-01-20T08:50:10.202Z,1338.00
2023-01-20T08:51:10.298Z,1349.00
2023-01-20T08:52:12.135Z,1346.00
2023-01-20T08:53:10.180Z,1361.00
2023-01-20T08:54:10.198Z,1407.00
2023-01-20T08:55:10.198Z,1389.00
2023-01-20T08:56:10.224Z,1423.00
2023-01-20T08:57:10.211Z,1416.00
2023-01-20T08:58:10.186Z,1430.00
2023-01-20T08:59:10.890Z,1434.00
2023-01-20T09:00:10.189Z,1437.00
2023-01-20T09:01:10.944Z,1468.00
2023-01-20T09:02:10.346Z,1453.00
2023-01-20T09:03:10.218Z,1454.00
2023-01-20T09:04:10.270Z,1458.00
2023-01-20T09:05:10.259Z,1450.00
2023-01-20T09:06:10.235Z,1456.00
2023-01-20T09:07:10.880Z,1448.00
2023-01-20T09:08:10.415Z,1449.00
2023-01-20T09:09:10.351Z,1450.00
2023-01-20T09:10:10.359Z,1452.00
2023-01-20T09:11:10.377Z,1449.00
2023-01-20T09:12:10.339Z,1448.00
2023-01-20T09:13:10.343Z,1449.00
2023-01-20T09:14:10.345Z,1444.00
2023-01-20T09:15:10.351Z,1450.00
2023-01-20T09:16:10.910Z,1431.00
2023-01-20T09:17:10.367Z,1443.00
2023-01-20T09:18:10.369Z,1420.00
2023-01-20T09:19:10.413Z,1341.00
2023-01-20T09:20:10.391Z,1313.00
2023-01-20T09:21:10.408Z,1243.00
2023-01-20T09:22:10.421Z,1249.00
2023-01-20T09:23:10.698Z,1229.00
2023-01-20T09:24:10.397Z,1181.00
2023-01-20T09:25:10.407Z,1174.00
2023-01-20T09:26:10.436Z,1156.00
2023-01-20T09:27:10.431Z,1114.00
2023-01-20T09:28:10.437Z,1089.00
2023-01-20T09:29:10.473Z,1080.00
2023-01-20T09:30:10.493Z,1050.00
2023-01-20T09:31:10.526Z,1020.00
2023-01-20T09:32:10.468Z,991.00
2023-01-20T09:33:11.402Z,983.00
2023-01-20T09:34:10.507Z,940.00
2023-01-20T09:35:10.574Z,935.00
2023-01-20T09:36:10.555Z,985.00
2023-01-20T09:37:10.567Z,1001.00
2023-01-20T09:38:10.573Z,1005.00
2023-01-20T09:39:10.577Z,1042.00
2023-01-20T09:40:10.660Z,1031.00
2023-01-20T09:41:10.653Z,1032.00
2023-01-20T09:42:10.629Z,993.00
2023-01-20T09:43:10.655Z,908.00
2023-01-20T09:44:10.646Z,895.00
2023-01-20T09:45:10.687Z,815.00
2023-01-20T09:46:10.735Z,808.00
2023-01-20T09:47:10.698Z,734.00
2023-01-20T09:48:10.703Z,744.00
2023-01-20T09:49:10.764Z,705.00
2023-01-20T09:50:10.760Z,661.00
2023-01-20T09:51:10.752Z,661.00
2023-01-20T09:52:10.762Z,638.00
2023-01-20T09:53:10.767Z,628.00
2023-01-20T09:54:10.805Z,617.00
2023-01-20T09:55:10.828Z,614.00
2023-01-20T09:56:10.823Z,604.00
2023-01-20T09:57:10.829Z,604.00
2023-01-20T09:58:10.869Z,617.00
2023-01-20T09:59:10.859Z,633.00
2023-01-20T10:00:10.873Z,679.00
2023-01-20T10:01:10.940Z,756.00
2023-01-20T10:02:10.941Z,846.00
2023-01-20T10:03:10.928Z,766.00
2023-01-20T10:04:10.933Z,880.00
2023-01-20T10:05:10.987Z,944.00
2023-01-20T10:06:10.950Z,942.00
2023-01-20T10:07:10.966Z,966.00
2023-01-20T10:08:11.012Z,1053.00
2023-01-20T10:09:10.992Z,1023.00
2023-01-20T10:10:11.007Z,1062.00
2023-01-20T10:11:11.073Z,1086.00
2023-01-20T10:12:11.017Z,1106.00
2023-01-20T10:13:11.005Z,1092.00
2023-01-20T10:14:11.051Z,1118.00
2023-01-20T10:15:11.056Z,1086.00
2023-01-20T10:16:11.138Z,1103.00
2023-01-20T10:17:11.041Z,1097.00
2023-01-20T10:18:11.065Z,928.00
2023-01-20T10:19:11.070Z,1010.00
2023-01-20T10:20:11.068Z,982.00
2023-01-20T10:21:11.079Z,871.00
2023-01-20T10:22:11.075Z,869.00
2023-01-20T10:23:11.085Z,946.00
2023-01-20T10:24:11.089Z,652.00
2023-01-20T10:25:11.111Z,600.00
2023-01-20T10:26:11.120Z,588.00
2023-01-20T10:27:11.129Z,586.00
2023-01-20T10:28:11.137Z,616.00
2023-01-20T10:29:11.164Z,595.00
2023-01-20T10:30:11.160Z,608.00
2023-01-20T10:31:11.249Z,581.00
2023-01-20T10:32:11.216Z,617.00
2023-01-20T10:33:11.221Z,573.00
2023-01-20T10:34:11.223Z,512.00
2023-01-20T10:35:11.230Z,506.00
2023-01-20T10:36:11.235Z,515.00
2023-01-20T10:37:11.247Z,535.00
2023-01-20T10:38:11.263Z,545.00
2023-01-20T10:39:11.284Z,583.00
2023-01-20T10:40:11.306Z,574.00
2023-01-20T10:41:11.804Z,592.00
2023-01-20T10:42:11.308Z,593.00
2023-01-20T10:43:11.333Z,575.00
2023-01-20T10:44:11.339Z,561.00
2023-01-20T10:45:11.332Z,585.00
2023-01-20T10:46:12.565Z,514.00
2023-01-20T10:47:13.556Z,503.00
2023-01-20T10:48:11.433Z,438.00
2023-01-20T10:49:11.391Z,484.00
2023-01-20T10:50:11.394Z,500.00
2023-01-20T10:51:11.396Z,522.00
2023-01-20T10:52:11.419Z,507.00
2023-01-20T10:53:13.487Z,527.00
2023-01-20T10:54:11.447Z,523.00
2023-01-20T10:55:11.477Z,558.00
2023-01-20T10:56:11.503Z,609.00
2023-01-20T10:57:11.503Z,602.00
2023-01-20T10:58:11.510Z,603.00
2023-01-20T10:59:11.542Z,623.00
2023-01-20T11:00:11.537Z,597.00
2023-01-20T11:01:11.542Z,661.00
2023-01-20T11:02:12.719Z,586.00
2023-01-20T11:03:11.618Z,510.00
2023-01-20T11:04:12.416Z,428.00
2023-01-20T11:05:11.597Z,417.00
2023-01-20T11:06:11.787Z,451.00
2023-01-20T11:07:11.650Z,457.00
2023-01-20T11:08:11.693Z,473.00
2023-01-20T11:09:11.702Z,508.00
2023-01-20T11:10:11.737Z,502.00
2023-01-20T11:11:11.741Z,494.00
2023-01-20T11:12:11.735Z,509.00
2023-01-20T11:13:11.761Z,539.00
2023-01-20T11:14:11.815Z,574.00
2023-01-20T11:15:11.845Z,548.00
2023-01-20T11:16:11.847Z,530.00
2023-01-20T11:17:11.809Z,583.00
2023-01-20T11:18:11.849Z,582.00
2023-01-20T11:19:11.910Z,624.00
2023-01-20T11:20:11.883Z,593.00
2023-01-20T11:21:11.891Z,586.00
2023-01-20T11:22:11.897Z,532.00
2023-01-20T12:31:13.944Z,927.00
2023-01-20T12:32:13.106Z,1012.00
2023-01-20T12:33:13.135Z,1221.00
2023-01-20T12:34:13.111Z,1480.00
2023-01-20T12:35:13.147Z,1453.00
2023-01-20T12:36:13.169Z,1387.00
2023-01-20T12:37:13.160Z,1603.00
2023-01-20T12:38:13.180Z,1588.00
2023-01-20T12:39:13.200Z,1731.00
2023-01-20T12:40:13.462Z,1530.00
2023-01-20T12:41:13.204Z,1550.00
2023-01-20T12:42:13.236Z,1399.00
2023-01-20T12:43:13.237Z,1429.00
2023-01-20T12:44:13.237Z,1365.00
2023-01-20T12:45:13.257Z,1311.00
2023-01-20T12:46:13.309Z,1422.00
2023-01-20T12:47:13.649Z,1474.00
2023-01-20T12:48:13.279Z,1343.00
2023-01-20T12:49:13.310Z,1491.00
2023-01-20T12:50:13.548Z,1467.00
2023-01-20T12:52:13.378Z,1538.00
2023-01-20T12:53:15.345Z,1541.00
2023-01-20T12:54:13.352Z,1491.00
2023-01-20T12:55:13.381Z,1485.00
2023-01-20T12:56:13.403Z,1482.00
2023-01-20T12:57:13.391Z,1675.00
2023-01-20T12:58:13.396Z,1820.00
2023-01-20T12:59:15.178Z,1692.00
2023-01-20T13:00:13.790Z,1640.00
2023-01-20T15:33:14.394Z,1976.00
2023-01-20T15:34:14.401Z,1911.00
2023-01-20T19:19:15.194Z,1660.00
2023-01-20T19:20:15.606Z,1581.00
2023-01-20T19:21:15.200Z,1631.00
2023-01-20T19:22:15.199Z,1580.00
2023-01-20T19:23:15.199Z,1663.00
2023-01-20T19:24:15.205Z,1679.00
2023-01-20T19:25:15.231Z,1663.00
2023-01-20T19:26:15.216Z,1728.00
2023-01-20T19:27:15.230Z,1635.00
2023-01-20T19:28:15.228Z,1584.00
2023-01-20T19:29:15.231Z,1670.00
2023-01-20T19:30:15.561Z,1567.00
2023-01-20T19:31:15.425Z,1493.00
2023-01-20T19:32:15.280Z,1514.00
2023-01-20T19:33:15.278Z,1515.00
2023-01-20T19:34:15.269Z,1602.00
2023-01-20T19:35:15.292Z,1572.00
2023-01-20T19:36:15.300Z,1650.00
2023-01-20T19:37:15.319Z,1651.00
2023-01-20T19:38:15.319Z,1670.00
2023-01-20T19:39:15.324Z,1643.00
2023-01-20T19:40:15.851Z,1666.00
2023-01-20T19:41:15.337Z,1639.00
2023-01-20T19:42:15.351Z,1612.00
2023-01-20T19:43:15.359Z,1671.00
2023-01-20T19:44:15.383Z,1639.00
2023-01-20T22:30:18.208Z,1493.00
2023-01-20T22:31:17.920Z,1509.00
2023-01-20T22:32:17.894Z,1328.00
2023-01-20T22:33:17.924Z,1520.00
2023-01-20T22:34:17.917Z,1363.00
2023-01-20T22:35:17.933Z,1457.00
2023-01-20T22:36:17.962Z,1380.00
2023-01-20T22:37:17.956Z,1557.00
2023-01-20T22:38:17.970Z,1413.00
2023-01-20T22:39:17.997Z,1404.00
2023-01-20T22:40:18.325Z,1477.00
2023-01-20T22:41:18.032Z,1565.00
2023-01-20T22:42:18.036Z,1392.00
2023-01-20T22:43:18.042Z,1530.00
2023-01-20T22:44:18.079Z,1350.00
2023-01-20T22:45:18.086Z,1473.00
2023-01-20T22:46:18.169Z,1557.00
2023-01-20T22:47:18.116Z,1484.00
2023-01-20T22:48:18.119Z,1309.00
2023-01-20T22:49:18.146Z,1368.00
2023-01-20T22:50:18.397Z,1491.00
2023-01-20T22:51:18.269Z,1518.00
2023-01-20T22:52:18.187Z,1547.00
2023-01-20T22:53:18.196Z,1457.00
2023-01-20T22:54:18.206Z,1531.00
2023-01-20T22:55:18.218Z,1421.00
2023-01-20T22:56:18.239Z,1521.00
2023-01-20T22:57:18.290Z,1512.00
2023-01-20T22:58:18.268Z,1536.00
2023-01-20T22:59:18.279Z,1531.00
2023-01-20T23:00:18.906Z,1534.00
2023-01-20T23:01:18.407Z,1582.00
2023-01-20T23:02:18.368Z,1401.00
2023-01-20T23:03:18.350Z,1446.00
2023-01-20T23:04:18.346Z,1348.00
2023-01-20T23:05:18.369Z,1328.00
2023-01-20T23:06:18.392Z,1342.00
2023-01-20T23:07:18.387Z,1455.00
2023-01-20T23:08:18.423Z,1602.00
2023-01-20T23:09:18.427Z,1653.00
2023-01-20T23:10:18.568Z,1620.00
2023-01-20T23:11:18.440Z,1615.00
2023-01-20T23:12:18.459Z,1571.00
2023-01-20T23:13:18.453Z,1477.00
2023-01-20T23:14:18.477Z,1537.00
2023-01-20T23:15:18.482Z,1672.00
2023-01-20T23:16:18.539Z,1694.00
2023-01-20T23:17:18.510Z,1579.00
2023-01-20T23:18:18.519Z,1599.00
2023-01-20T23:19:18.553Z,1612.00
2023-01-20T23:20:18.806Z,1609.00
2023-01-20T23:21:18.608Z,1474.00
2023-01-20T23:22:18.579Z,1515.00
2023-01-20T23:23:18.596Z,1631.00
2023-01-20T23:24:18.623Z,1618.00
2023-01-20T23:25:18.631Z,1495.00
2023-01-20T23:26:18.652Z,1625.00
2023-01-20T23:27:18.659Z,1616.00
2023-01-20T23:28:18.668Z,1628.00
2023-01-20T23:29:18.690Z,1657.00
2023-01-20T23:30:18.752Z,1671.00
2023-01-20T23:31:18.723Z,1686.00
2023-01-20T23:32:18.707Z,1587.00
2023-01-20T23:33:18.725Z,1564.00
2023-01-20T23:34:18.738Z,1460.00
2023-01-20T23:35:18.745Z,1456.00
2023-01-20T23:36:18.763Z,1456.00
2023-01-20T23:37:18.777Z,1308.00
2023-01-20T23:38:18.786Z,1496.00
2023-01-20T23:39:18.813Z,1556.00
2023-01-20T23:40:19.097Z,1623.00
2023-01-20T23:41:18.828Z,1667.00
2023-01-20T23:42:18.965Z,1549.00
2023-01-20T23:43:18.927Z,1542.00
2023-01-20T23:44:18.902Z,1402.00
2023-01-20T23:45:18.871Z,1403.00
2023-01-20T23:46:18.912Z,1525.00
2023-01-20T23:47:18.924Z,1501.00
2023-01-20T23:48:18.925Z,1564.00
2023-01-20T23:49:21.065Z,1428.00
2023-01-20T23:50:18.941Z,1430.00
2023-01-20T23:51:19.019Z,1450.00
2023-01-20T23:52:18.973Z,1491.00
2023-01-20T23:53:18.985Z,1552.00
2023-01-20T23:54:19.001Z,1524.00
2023-01-20T23:55:19.010Z,1640.00
2023-01-20T23:56:19.025Z,1651.00
2023-01-20T23:57:19.696Z,1649.00
2023-01-20T23:58:19.043Z,1584.00
2023-01-20T23:59:19.053Z,1647.00
